Time;durP1;ratioP1;P1;durP2;ratioP2;P2;SDS_P1;SDS_P2;PMS_P1;PMS_P2;Temp;Humidity;BMP_temperature;BMP_pressure;BME280_temperature;BME280_humidity;BME280_pressure;Samples;Min_cycle;Max_cycle;Signal;HPM_P1;HPM_P2
2022/06/20 00:00:03;;;;;;;;;;;12.10;99.90;;;;;;5116005;28;20361;-73
2022/06/20 00:02:29;;;;;;;;;;;12.00;99.90;;;;;;5115694;28;20022;-75
2022/06/20 00:04:55;;;;;;;;;;;12.00;99.90;;;;;;5115908;28;20392;-75
2022/06/20 00:07:21;;;;;;;;;;;11.90;99.90;;;;;;5115122;28;20348;-75
2022/06/20 00:09:47;;;;;;;;;;;11.90;99.90;;;;;;5115622;28;19908;-76
2022/06/20 00:12:18;;;;;;;;;;;11.90;99.90;;;;;;5115476;28;19908;-76
2022/06/20 00:14:44;;;;;;;;;;;11.80;99.90;;;;;;5114579;28;19915;-75
2022/06/20 00:17:14;;;;;;;;;;;11.80;99.90;;;;;;5114895;28;20264;-75
2022/06/20 00:19:42;;;;;;;;;;;11.80;99.90;;;;;;5116244;28;19912;-75
2022/06/20 00:22:09;;;;;;;;;;;11.90;99.90;;;;;;5115309;28;19911;-75
2022/06/20 00:24:34;;;;;;;;;;;11.90;99.90;;;;;;5115736;28;19991;-75
2022/06/20 00:27:00;;;;;;;;;;;11.90;99.90;;;;;;5115468;28;19939;-76
2022/06/20 00:29:28;;;;;;;;;;;11.70;99.90;;;;;;5115083;28;19964;-76
2022/06/20 00:31:53;;;;;;;;;;;11.70;99.90;;;;;;5116041;28;19914;-75
2022/06/20 00:34:19;;;;;;;;;;;11.70;99.90;;;;;;5114724;28;19920;-76
2022/06/20 00:36:44;;;;;;;;;;;11.70;99.90;;;;;;5115325;28;19919;-75
2022/06/20 00:39:11;;;;;;;;;;;11.70;99.90;;;;;;5114952;28;19922;-75
2022/06/20 00:41:36;;;;;;;;;;;11.70;99.90;;;;;;5114166;28;20280;-75
2022/06/20 00:44:02;;;;;;;;;;;11.60;99.90;;;;;;5115082;28;19915;-75
2022/06/20 00:46:34;;;;;;;;;;;11.60;99.90;;;;;;5114799;28;19907;-75
2022/06/20 00:49:17;;;;;;;;;;;11.60;99.90;;;;;;5115040;28;20002;-75
2022/06/20 00:52:06;;;;;;;;;;;11.50;99.90;;;;;;5115432;28;19908;-75
2022/06/20 00:54:34;;;;;;;;;;;11.40;99.90;;;;;;5111076;28;19908;-75
2022/06/20 00:57:08;;;;;;;;;;;11.30;99.90;;;;;;5115283;28;20348;-75
2022/06/20 00:59:41;;;;;;;;;;;11.10;99.90;;;;;;5114868;28;19911;-75
2022/06/20 01:02:07;;;;;;;;;;;11.10;99.90;;;;;;5114490;28;19957;-74
2022/06/20 01:04:38;;;;;;;;;;;11.00;99.90;;;;;;5114445;28;19915;-75
2022/06/20 01:07:07;;;;;;;;;;;10.90;99.90;;;;;;5115166;28;20280;-75
2022/06/20 01:09:34;;;;;;;;;;;10.80;99.90;;;;;;5114828;28;19915;-75
2022/06/20 01:12:02;;;;;;;;;;;10.70;99.90;;;;;;5114550;28;20403;-75
2022/06/20 01:14:28;;;;;;;;;;;10.70;99.90;;;;;;5114137;28;19912;-74
2022/06/20 01:16:58;;;;;;;;;;;10.70;99.90;;;;;;5114575;28;19957;-76
2022/06/20 01:19:26;;;;;;;;;;;10.60;99.90;;;;;;5114188;28;19912;-75
2022/06/20 01:21:52;;;;;;;;;;;10.60;99.90;;;;;;5114671;28;19907;-75
2022/06/20 01:24:31;;;;;;;;;;;10.50;99.90;;;;;;5114027;28;20003;-75
2022/06/20 01:27:12;;;;;;;;;;;10.50;99.90;;;;;;5114437;28;20357;-76
2022/06/20 01:29:38;;;;;;;;;;;10.50;99.90;;;;;;5113204;28;19915;-76
2022/06/20 01:32:04;;;;;;;;;;;10.40;99.90;;;;;;5114185;28;20364;-75
2022/06/20 01:34:31;;;;;;;;;;;10.40;99.90;;;;;;5113441;27;19919;-76
2022/06/20 01:39:44;;;;;;;;;;;10.20;99.90;;;;;;5114145;28;19935;-75
2022/06/20 01:42:19;;;;;;;;;;;10.20;99.90;;;;;;5113523;28;19908;-73
2022/06/20 01:45:05;;;;;;;;;;;10.20;99.90;;;;;;5114063;28;19908;-75
2022/06/20 01:47:31;;;;;;;;;;;10.20;99.90;;;;;;5113537;28;19903;-75
2022/06/20 01:50:02;;;;;;;;;;;10.10;99.90;;;;;;5113671;28;20011;-75
2022/06/20 01:52:30;;;;;;;;;;;10.20;99.90;;;;;;5113534;28;19916;-75
2022/06/20 01:54:59;;;;;;;;;;;10.20;99.90;;;;;;5113809;28;19915;-75
2022/06/20 01:57:26;;;;;;;;;;;10.20;99.90;;;;;;5113442;28;19919;-75
2022/06/20 02:00:12;;;;;;;;;;;10.10;99.90;;;;;;5114344;28;19911;-75
2022/06/20 02:02:40;;;;;;;;;;;10.10;99.90;;;;;;5114039;28;20254;-75
2022/06/20 02:05:07;;;;;;;;;;;10.00;99.90;;;;;;5113140;28;19915;-75
2022/06/20 02:07:33;;;;;;;;;;;10.00;99.90;;;;;;5113169;28;19976;-75
2022/06/20 02:10:00;;;;;;;;;;;9.80;99.90;;;;;;5113697;28;19908;-75
2022/06/20 02:12:28;;;;;;;;;;;9.80;99.90;;;;;;5112741;28;19908;-74
2022/06/20 02:14:58;;;;;;;;;;;9.80;99.90;;;;;;5112499;28;20357;-75
2022/06/20 02:17:26;;;;;;;;;;;9.80;99.90;;;;;;5112938;28;19956;-75
2022/06/20 02:19:53;;;;;;;;;;;9.70;99.90;;;;;;5113629;28;19954;-75
2022/06/20 02:22:20;;;;;;;;;;;9.60;99.90;;;;;;5111726;28;19974;-75
2022/06/20 02:24:48;;;;;;;;;;;9.50;99.90;;;;;;5113543;28;19908;-75
2022/06/20 02:27:30;;;;;;;;;;;9.50;99.90;;;;;;5112979;28;19911;-73
2022/06/20 02:29:57;;;;;;;;;;;9.50;99.90;;;;;;5113558;28;19988;-75
2022/06/20 02:32:24;;;;;;;;;;;9.60;99.90;;;;;;5112931;28;20303;-75
2022/06/20 02:34:50;;;;;;;;;;;9.60;99.90;;;;;;5113248;28;20011;-75
2022/06/20 02:37:20;;;;;;;;;;;9.50;99.90;;;;;;5111422;28;20014;-74
2022/06/20 02:39:46;;;;;;;;;;;9.50;99.90;;;;;;5113267;28;19918;-75
2022/06/20 02:42:18;;;;;;;;;;;9.50;99.90;;;;;;5111825;28;19907;-75
2022/06/20 02:44:45;;;;;;;;;;;9.50;99.90;;;;;;5113541;28;19907;-75
2022/06/20 02:47:11;;;;;;;;;;;9.40;99.90;;;;;;5113215;28;20415;-75
2022/06/20 02:49:37;;;;;;;;;;;9.40;99.90;;;;;;5112640;28;19908;-75
2022/06/20 02:52:05;;;;;;;;;;;9.30;99.90;;;;;;5113203;28;19953;-75
2022/06/20 02:54:33;;;;;;;;;;;9.30;99.90;;;;;;5112622;28;19908;-75
2022/06/20 02:57:02;;;;;;;;;;;9.40;99.90;;;;;;5113243;28;19955;-75
2022/06/20 02:59:32;;;;;;;;;;;9.30;99.90;;;;;;5112745;28;19991;-75
2022/06/20 03:02:09;;;;;;;;;;;9.30;99.90;;;;;;5113642;28;20409;-75
2022/06/20 03:04:36;;;;;;;;;;;9.30;99.90;;;;;;5112748;28;19987;-75
2022/06/20 03:07:04;;;;;;;;;;;9.40;99.90;;;;;;5112988;28;19907;-74
2022/06/20 03:09:31;;;;;;;;;;;9.30;99.90;;;;;;5112436;28;19962;-75
2022/06/20 03:11:57;;;;;;;;;;;9.20;99.90;;;;;;5113065;28;19914;-76
2022/06/20 03:14:27;;;;;;;;;;;9.20;99.90;;;;;;5112557;28;19908;-75
2022/06/20 03:16:53;;;;;;;;;;;9.20;99.90;;;;;;5115027;28;19908;-75
2022/06/20 03:19:25;;;;;;;;;;;9.10;99.90;;;;;;5116430;28;20433;-74
2022/06/20 03:21:51;;;;;;;;;;;9.10;99.90;;;;;;5117015;28;19907;-75
2022/06/20 03:24:18;;;;;;;;;;;9.20;99.90;;;;;;5116717;28;19933;-73
2022/06/20 03:26:44;;;;;;;;;;;9.10;99.90;;;;;;5117387;27;19961;-75
2022/06/20 03:29:15;;;;;;;;;;;9.20;99.90;;;;;;5116873;28;19908;-75
2022/06/20 03:31:41;;;;;;;;;;;9.10;99.90;;;;;;5115202;28;19908;-75
2022/06/20 03:34:07;;;;;;;;;;;9.10;99.90;;;;;;5115435;28;20375;-75
2022/06/20 03:36:34;;;;;;;;;;;9.10;99.90;;;;;;5114996;28;20349;-75
2022/06/20 03:39:00;;;;;;;;;;;9.10;99.90;;;;;;5116674;28;19912;-75
2022/06/20 03:41:26;;;;;;;;;;;9.10;99.90;;;;;;5116183;28;19912;-75
2022/06/20 03:44:02;;;;;;;;;;;9.20;99.90;;;;;;5116638;28;19990;-75
2022/06/20 03:46:29;;;;;;;;;;;9.20;99.90;;;;;;5116120;28;19998;-75
2022/06/20 03:49:01;;;;;;;;;;;9.30;99.90;;;;;;5116145;28;20284;-75
2022/06/20 03:51:35;;;;;;;;;;;9.40;99.90;;;;;;5115768;28;20455;-74
2022/06/20 03:54:10;;;;;;;;;;;9.20;99.90;;;;;;5116304;28;20349;-75
2022/06/20 03:56:36;;;;;;;;;;;9.20;99.90;;;;;;5115689;28;20002;-75
2022/06/20 03:59:07;;;;;;;;;;;9.20;99.90;;;;;;5115926;28;20019;-75
2022/06/20 04:01:36;;;;;;;;;;;9.20;99.90;;;;;;5115911;28;19965;-75
2022/06/20 04:04:16;;;;;;;;;;;9.20;99.90;;;;;;5116269;28;20070;-75
2022/06/20 04:06:45;;;;;;;;;;;9.20;99.90;;;;;;5115830;28;19959;-75
2022/06/20 04:12:15;;;;;;;;;;;9.20;99.90;;;;;;5116240;28;20069;-75
2022/06/20 04:14:49;;;;;;;;;;;9.20;99.90;;;;;;5114032;28;19904;-75
2022/06/20 04:20:00;;;;;;;;;;;9.00;99.90;;;;;;5115963;28;19934;-76
2022/06/20 04:22:29;;;;;;;;;;;9.00;99.90;;;;;;5115353;28;19915;-75
2022/06/20 04:24:59;;;;;;;;;;;8.90;99.90;;;;;;5115677;28;20253;-75
2022/06/20 04:27:36;;;;;;;;;;;8.90;99.90;;;;;;5115094;28;20340;-75
2022/06/20 04:30:05;;;;;;;;;;;8.90;99.90;;;;;;5114362;28;19907;-76
2022/06/20 04:32:35;;;;;;;;;;;8.90;99.90;;;;;;5115228;27;20341;-76
2022/06/20 04:35:05;;;;;;;;;;;8.90;99.90;;;;;;5115894;28;19920;-75
2022/06/20 04:37:38;;;;;;;;;;;8.90;99.90;;;;;;5114972;28;19959;-75
2022/06/20 04:40:04;;;;;;;;;;;8.90;99.90;;;;;;5115774;28;19919;-76
2022/06/20 04:42:30;;;;;;;;;;;8.80;99.90;;;;;;5114933;28;19908;-75
2022/06/20 04:44:58;;;;;;;;;;;8.90;99.90;;;;;;5115333;28;20049;-75
2022/06/20 04:47:24;;;;;;;;;;;9.00;99.90;;;;;;5114930;28;19931;-74
2022/06/20 04:49:50;;;;;;;;;;;9.10;99.90;;;;;;5115066;28;20356;-75
2022/06/20 04:52:18;;;;;;;;;;;9.20;99.90;;;;;;5115407;28;19953;-75
2022/06/20 04:54:43;;;;;;;;;;;9.30;99.90;;;;;;5114763;28;20492;-75
2022/06/20 04:57:12;;;;;;;;;;;9.40;99.90;;;;;;5115152;28;19916;-75
2022/06/20 04:59:38;;;;;;;;;;;9.60;99.90;;;;;;5114719;28;20006;-74
2022/06/20 05:02:05;;;;;;;;;;;9.90;99.90;;;;;;5115291;28;19974;-75
2022/06/20 05:04:41;;;;;;;;;;;10.10;99.90;;;;;;5114521;28;20314;-75
2022/06/20 05:07:11;;;;;;;;;;;10.30;99.90;;;;;;5115096;28;19965;-75
2022/06/20 05:09:44;;;;;;;;;;;10.50;99.90;;;;;;5114873;28;20019;-74
2022/06/20 05:12:10;;;;;;;;;;;10.60;99.90;;;;;;5114751;28;19908;-75
2022/06/20 05:14:49;;;;;;;;;;;10.80;99.90;;;;;;5114213;28;19965;-75
2022/06/20 05:17:18;;;;;;;;;;;10.90;99.90;;;;;;5114909;28;19911;-75
2022/06/20 05:19:45;;;;;;;;;;;11.10;99.90;;;;;;5114215;28;19916;-76
2022/06/20 05:22:14;;;;;;;;;;;11.30;99.90;;;;;;5114877;28;20372;-75
2022/06/20 05:24:40;;;;;;;;;;;11.40;99.90;;;;;;5114097;28;20387;-75
2022/06/20 05:27:11;;;;;;;;;;;11.50;99.90;;;;;;5114421;28;19911;-75
2022/06/20 05:29:38;;;;;;;;;;;11.60;99.90;;;;;;5114067;28;19907;-76
2022/06/20 05:32:06;;;;;;;;;;;11.80;99.90;;;;;;5114100;28;19908;-76
2022/06/20 05:34:53;;;;;;;;;;;11.90;99.90;;;;;;5113675;28;20018;-75
2022/06/20 05:37:37;;;;;;;;;;;12.00;99.90;;;;;;5113202;28;19966;-76
2022/06/20 05:40:03;;;;;;;;;;;12.20;99.90;;;;;;5114564;28;20026;-76
2022/06/20 05:42:29;;;;;;;;;;;12.20;99.90;;;;;;5113106;28;20378;-75
2022/06/20 05:44:54;;;;;;;;;;;12.40;99.90;;;;;;5114223;28;20010;-75
2022/06/20 05:47:24;;;;;;;;;;;12.40;99.90;;;;;;5114306;28;20340;-75
2022/06/20 05:49:52;;;;;;;;;;;12.50;99.90;;;;;;5113927;28;19915;-75
2022/06/20 05:52:21;;;;;;;;;;;12.60;99.90;;;;;;5114158;28;19911;-76
2022/06/20 05:54:58;;;;;;;;;;;12.70;99.90;;;;;;5113396;28;20546;-75
2022/06/20 05:57:25;;;;;;;;;;;12.70;99.90;;;;;;5114111;28;19912;-75
2022/06/20 05:59:54;;;;;;;;;;;12.80;99.90;;;;;;5113845;28;19918;-76
2022/06/20 06:02:22;;;;;;;;;;;13.00;99.90;;;;;;5113837;28;19908;-76
2022/06/20 06:04:53;;;;;;;;;;;13.10;99.90;;;;;;5113330;28;19935;-76
2022/06/20 06:07:26;;;;;;;;;;;13.20;99.90;;;;;;5113761;28;20006;-76
2022/06/20 06:10:03;;;;;;;;;;;13.30;99.90;;;;;;5113389;28;19918;-76
2022/06/20 06:12:37;;;;;;;;;;;13.50;99.90;;;;;;5113483;28;20003;-74
2022/06/20 06:15:26;;;;;;;;;;;13.50;99.90;;;;;;5113665;28;19942;-76
2022/06/20 06:17:56;;;;;;;;;;;13.60;99.90;;;;;;5092403;28;19968;-75
2022/06/20 06:20:23;;;;;;;;;;;13.70;99.90;;;;;;5113641;28;19911;-75
2022/06/20 06:22:56;;;;;;;;;;;13.80;99.90;;;;;;5112778;28;20513;-76
2022/06/20 06:25:29;;;;;;;;;;;13.90;99.90;;;;;;5114010;28;20262;-76
2022/06/20 06:27:56;;;;;;;;;;;13.90;99.90;;;;;;5113491;28;19908;-75
2022/06/20 06:30:24;;;;;;;;;;;14.00;99.90;;;;;;5113504;28;19908;-75
2022/06/20 06:32:56;;;;;;;;;;;14.10;99.90;;;;;;5112927;28;20277;-75
2022/06/20 06:35:25;;;;;;;;;;;14.10;99.90;;;;;;5113198;28;19927;-76
2022/06/20 06:37:55;;;;;;;;;;;14.10;99.90;;;;;;5112990;28;19939;-76
2022/06/20 06:40:22;;;;;;;;;;;14.20;99.90;;;;;;5113436;28;19919;-76
2022/06/20 06:42:48;;;;;;;;;;;14.10;99.90;;;;;;5112423;28;20363;-75
2022/06/20 06:45:22;;;;;;;;;;;14.10;99.90;;;;;;5113221;28;19915;-76
2022/06/20 06:48:07;;;;;;;;;;;14.20;99.90;;;;;;5112152;28;19912;-75
2022/06/20 06:50:39;;;;;;;;;;;14.10;99.90;;;;;;5088967;28;19951;-75
2022/06/20 06:53:11;;;;;;;;;;;14.10;99.90;;;;;;5092469;28;19923;-75
2022/06/20 06:55:39;;;;;;;;;;;14.20;99.90;;;;;;5092410;28;20325;-75
2022/06/20 06:58:23;;;;;;;;;;;14.30;99.90;;;;;;5092817;28;19956;-76
2022/06/20 07:01:00;;;;;;;;;;;14.20;99.90;;;;;;5092221;28;20011;-75
2022/06/20 07:03:25;;;;;;;;;;;14.20;99.90;;;;;;5092104;28;20372;-75
2022/06/20 07:05:54;;;;;;;;;;;14.40;99.90;;;;;;5091525;28;19920;-75
2022/06/20 07:08:24;;;;;;;;;;;14.60;99.90;;;;;;5092462;28;19908;-75
2022/06/20 07:10:52;;;;;;;;;;;14.70;99.90;;;;;;5092009;28;19908;-75
2022/06/20 07:13:23;;;;;;;;;;;14.80;99.90;;;;;;5092808;28;19912;-75
2022/06/20 07:15:51;;;;;;;;;;;14.90;99.90;;;;;;5092119;28;19908;-75
2022/06/20 07:18:24;;;;;;;;;;;14.90;99.90;;;;;;5092562;28;19912;-75
2022/06/20 07:20:50;;;;;;;;;;;15.00;99.90;;;;;;5091678;28;19912;-75
2022/06/20 07:23:17;;;;;;;;;;;15.10;99.90;;;;;;5092422;28;19912;-76
2022/06/20 07:25:44;;;;;;;;;;;15.10;99.90;;;;;;5091976;28;19943;-75
2022/06/20 07:28:16;;;;;;;;;;;15.20;99.90;;;;;;5092626;28;19951;-75
2022/06/20 07:30:47;;;;;;;;;;;15.30;99.90;;;;;;5091730;28;19930;-76
2022/06/20 07:33:22;;;;;;;;;;;15.40;99.90;;;;;;5092686;28;20341;-76
2022/06/20 07:35:53;;;;;;;;;;;15.40;99.90;;;;;;5092442;28;19924;-75
2022/06/20 07:38:21;;;;;;;;;;;15.50;99.90;;;;;;5092132;28;19920;-76
2022/06/20 07:40:53;;;;;;;;;;;15.50;99.90;;;;;;5091642;28;19912;-76
2022/06/20 07:43:34;;;;;;;;;;;15.50;99.90;;;;;;5092519;28;19958;-76
2022/06/20 07:46:05;;;;;;;;;;;15.60;99.90;;;;;;5092105;28;19915;-76
2022/06/20 07:48:35;;;;;;;;;;;15.70;99.90;;;;;;5105511;28;20353;-76
2022/06/20 07:51:17;;;;;;;;;;;15.90;99.90;;;;;;5098865;28;19908;-76
2022/06/20 07:53:52;;;;;;;;;;;16.00;99.90;;;;;;5091505;28;19908;-75
2022/06/20 07:56:20;;;;;;;;;;;16.10;99.90;;;;;;5091742;28;20377;-76
2022/06/20 07:58:52;;;;;;;;;;;16.20;99.90;;;;;;5090757;28;19912;-76
2022/06/20 08:01:20;;;;;;;;;;;16.30;99.90;;;;;;5091653;28;20300;-76
2022/06/20 08:03:57;;;;;;;;;;;16.20;99.90;;;;;;5093162;28;19916;-76
2022/06/20 08:06:38;;;;;;;;;;;16.10;99.90;;;;;;5095431;28;19908;-75
2022/06/20 08:09:19;;;;;;;;;;;16.20;99.90;;;;;;5095499;28;20003;-77
2022/06/20 08:12:07;;;;;;;;;;;16.40;99.90;;;;;;5094822;28;19954;-78
2022/06/20 08:14:38;;;;;;;;;;;16.60;99.90;;;;;;5094929;28;20023;-77
2022/06/20 08:17:08;;;;;;;;;;;16.80;99.90;;;;;;5094807;28;19908;-77
2022/06/20 08:19:33;;;;;;;;;;;16.80;99.90;;;;;;5094895;28;19940;-78
2022/06/20 08:22:02;;;;;;;;;;;16.80;99.90;;;;;;5094330;28;19958;-77
2022/06/20 08:24:35;;;;;;;;;;;17.00;99.90;;;;;;5095501;28;20284;-77
2022/06/20 08:27:04;;;;;;;;;;;17.00;99.90;;;;;;5092201;28;19916;-75
2022/06/20 08:29:42;;;;;;;;;;;17.00;99.90;;;;;;5095013;28;19912;-77
2022/06/20 08:32:12;;;;;;;;;;;17.10;99.90;;;;;;5091288;28;19912;-74
2022/06/20 08:35:04;;;;;;;;;;;17.10;99.90;;;;;;5088188;28;20303;-75
2022/06/20 08:37:35;;;;;;;;;;;17.20;99.90;;;;;;5078255;28;19920;-77
2022/06/20 08:40:24;;;;;;;;;;;17.20;99.90;;;;;;5095528;28;19992;-77
2022/06/20 08:43:08;;;;;;;;;;;17.20;99.90;;;;;;5093761;28;19908;-77
2022/06/20 08:45:42;;;;;;;;;;;17.10;99.90;;;;;;5093259;28;20265;-76
2022/06/20 08:48:37;;;;;;;;;;;17.00;99.90;;;;;;5094301;28;19965;-76
2022/06/20 08:51:12;;;;;;;;;;;17.00;99.90;;;;;;5084432;28;19912;-76
2022/06/20 08:53:37;;;;;;;;;;;16.80;99.90;;;;;;5093862;28;19923;-74
2022/06/20 08:56:15;;;;;;;;;;;16.90;99.90;;;;;;5094221;28;19965;-76
2022/06/20 08:58:54;;;;;;;;;;;16.90;99.90;;;;;;5092891;28;20341;-75
2022/06/20 09:01:25;;;;;;;;;;;16.90;99.90;;;;;;5093458;28;19957;-76
2022/06/20 09:03:54;;;;;;;;;;;17.10;99.90;;;;;;5094086;28;19908;-77
2022/06/20 09:06:37;;;;;;;;;;;17.20;99.90;;;;;;5094556;28;19961;-77
2022/06/20 09:09:13;;;;;;;;;;;17.40;99.90;;;;;;5094084;28;19908;-76
2022/06/20 09:11:38;;;;;;;;;;;17.50;99.90;;;;;;5094155;28;20004;-74
2022/06/20 09:14:24;;;;;;;;;;;17.50;99.90;;;;;;5093626;28;19947;-76
2022/06/20 09:17:05;;;;;;;;;;;17.60;99.90;;;;;;5081811;28;19931;-76
2022/06/20 09:19:52;;;;;;;;;;;17.60;99.90;;;;;;5094234;28;20280;-77
2022/06/20 09:22:21;;;;;;;;;;;17.50;99.90;;;;;;5094224;28;20002;-78
2022/06/20 09:24:55;;;;;;;;;;;17.40;99.90;;;;;;5093076;28;20334;-78
2022/06/20 09:27:23;;;;;;;;;;;17.50;99.90;;;;;;5093248;28;19995;-78
2022/06/20 09:29:55;;;;;;;;;;;17.60;99.90;;;;;;5090614;28;19977;-78
2022/06/20 09:32:23;;;;;;;;;;;17.50;99.90;;;;;;5093682;28;19916;-78
2022/06/20 09:35:05;;;;;;;;;;;17.60;99.90;;;;;;5093278;28;19981;-79
2022/06/20 09:37:51;;;;;;;;;;;17.60;99.90;;;;;;5093735;28;19919;-79
2022/06/20 09:40:24;;;;;;;;;;;17.70;99.90;;;;;;5093876;28;19912;-78
2022/06/20 09:43:02;;;;;;;;;;;17.70;99.90;;;;;;5091192;28;19999;-79
2022/06/20 09:45:35;;;;;;;;;;;17.80;99.90;;;;;;5092925;28;19916;-79
2022/06/20 09:48:10;;;;;;;;;;;17.90;99.90;;;;;;5092793;28;19911;-80
2022/06/20 09:50:55;;;;;;;;;;;18.00;99.90;;;;;;5091200;28;19912;-80
2022/06/20 09:53:27;;;;;;;;;;;18.10;99.90;;;;;;5094087;28;19919;-77
2022/06/20 09:55:58;;;;;;;;;;;18.10;99.90;;;;;;5091271;28;19915;-78
2022/06/20 09:58:38;;;;;;;;;;;18.30;99.90;;;;;;5093668;28;20269;-79
2022/06/20 10:01:22;;;;;;;;;;;18.30;99.90;;;;;;5089155;28;19961;-79
2022/06/20 10:03:57;;;;;;;;;;;18.40;99.90;;;;;;5090366;28;19912;-79
2022/06/20 10:06:41;;;;;;;;;;;18.50;99.90;;;;;;5093420;28;19908;-79
2022/06/20 10:09:14;;;;;;;;;;;18.60;99.90;;;;;;5091188;28;19923;-79
2022/06/20 10:11:42;;;;;;;;;;;18.80;99.90;;;;;;5093212;28;19908;-81
2022/06/20 10:14:14;;;;;;;;;;;19.00;99.90;;;;;;5093113;28;19934;-81
2022/06/20 10:16:54;;;;;;;;;;;19.10;99.90;;;;;;5092949;28;20007;-81
2022/06/20 10:19:34;;;;;;;;;;;19.20;99.90;;;;;;5092829;28;19919;-81
2022/06/20 10:22:08;;;;;;;;;;;19.30;99.90;;;;;;5092155;28;19912;-81
2022/06/20 10:24:59;;;;;;;;;;;19.50;99.90;;;;;;5090532;28;19914;-80
2022/06/20 10:27:31;;;;;;;;;;;19.60;99.90;;;;;;5091873;28;19951;-80
2022/06/20 10:30:06;;;;;;;;;;;19.70;99.90;;;;;;5092108;28;19908;-80
2022/06/20 10:32:52;;;;;;;;;;;19.70;99.90;;;;;;5091635;28;20306;-81
2022/06/20 10:35:33;;;;;;;;;;;19.70;99.90;;;;;;5092996;28;20019;-81
2022/06/20 10:38:06;;;;;;;;;;;19.70;99.90;;;;;;5092117;28;20379;-80
2022/06/20 10:40:34;;;;;;;;;;;19.70;99.90;;;;;;5092860;28;19912;-80
2022/06/20 10:43:08;;;;;;;;;;;19.70;99.90;;;;;;5092361;28;19908;-80
2022/06/20 10:45:48;;;;;;;;;;;19.80;99.90;;;;;;5092775;28;20361;-79
2022/06/20 10:48:14;;;;;;;;;;;19.70;99.90;;;;;;5095393;28;19912;-79
2022/06/20 10:50:39;;;;;;;;;;;19.80;99.90;;;;;;5092161;28;19965;-78
2022/06/20 10:53:14;;;;;;;;;;;19.70;99.90;;;;;;5093107;28;19978;-79
2022/06/20 10:55:45;;;;;;;;;;;19.80;99.90;;;;;;5092935;28;19908;-80
2022/06/20 10:58:16;;;;;;;;;;;19.80;99.90;;;;;;5092842;28;20385;-80
2022/06/20 11:00:44;;;;;;;;;;;20.00;99.90;;;;;;5092603;28;20369;-80
2022/06/20 11:03:11;;;;;;;;;;;20.00;99.90;;;;;;5092446;28;19908;-80
2022/06/20 11:05:55;;;;;;;;;;;20.00;99.90;;;;;;5092753;28;19908;-80
2022/06/20 11:08:24;;;;;;;;;;;20.00;99.90;;;;;;5091049;28;20294;-80
2022/06/20 11:11:08;;;;;;;;;;;20.10;99.90;;;;;;5091790;28;19939;-78
2022/06/20 11:13:46;;;;;;;;;;;20.00;99.90;;;;;;5089322;28;19943;-80
2022/06/20 11:16:32;;;;;;;;;;;20.00;99.90;;;;;;5092832;28;19921;-79
2022/06/20 11:19:01;;;;;;;;;;;20.20;99.90;;;;;;5091530;28;19922;-80
2022/06/20 11:21:29;;;;;;;;;;;20.20;99.90;;;;;;5092793;28;19920;-81
2022/06/20 11:24:00;;;;;;;;;;;20.20;99.90;;;;;;5091738;28;19912;-79
2022/06/20 11:26:41;;;;;;;;;;;20.20;99.90;;;;;;5102543;28;19912;-79
2022/06/20 11:29:09;;;;;;;;;;;20.10;99.90;;;;;;5111922;28;19912;-80
2022/06/20 11:31:41;;;;;;;;;;;20.20;99.90;;;;;;5112811;28;19907;-80
2022/06/20 11:34:16;;;;;;;;;;;20.30;99.90;;;;;;5112223;28;20035;-79
2022/06/20 11:36:41;;;;;;;;;;;20.20;99.90;;;;;;5112072;28;19919;-80
2022/06/20 11:39:25;;;;;;;;;;;20.20;99.90;;;;;;5112790;28;20000;-80
2022/06/20 11:41:53;;;;;;;;;;;20.20;99.90;;;;;;5095662;28;19919;-79
2022/06/20 11:44:22;;;;;;;;;;;20.20;99.90;;;;;;5096199;28;19908;-80
2022/06/20 11:47:06;;;;;;;;;;;20.20;99.90;;;;;;5095636;28;19908;-77
2022/06/20 11:49:55;;;;;;;;;;;20.40;99.90;;;;;;5095620;28;20366;-80
2022/06/20 11:52:21;;;;;;;;;;;20.50;99.90;;;;;;5075780;28;19908;-80
2022/06/20 11:54:52;;;;;;;;;;;20.50;99.90;;;;;;5095412;28;20331;-77
2022/06/20 11:57:24;;;;;;;;;;;20.40;99.90;;;;;;5095929;28;20353;-80
2022/06/20 11:59:53;;;;;;;;;;;20.40;99.90;;;;;;5095329;28;19912;-79
2022/06/20 12:02:18;;;;;;;;;;;20.40;99.90;;;;;;5096187;28;19947;-80
2022/06/20 12:05:04;;;;;;;;;;;20.40;99.90;;;;;;5095389;28;19973;-80
2022/06/20 12:07:29;;;;;;;;;;;20.50;99.90;;;;;;5094790;28;19908;-81
2022/06/20 12:10:02;;;;;;;;;;;20.60;99.90;;;;;;5095179;28;19914;-80
2022/06/20 12:12:38;;;;;;;;;;;20.60;99.90;;;;;;5095537;28;19951;-80
2022/06/20 12:15:22;;;;;;;;;;;20.60;99.90;;;;;;5094713;28;19995;-80
2022/06/20 12:18:06;;;;;;;;;;;20.70;99.90;;;;;;5095208;28;19920;-77
2022/06/20 12:23:25;;;;;;;;;;;21.00;99.90;;;;;;5095339;28;19931;-80
2022/06/20 12:25:53;;;;;;;;;;;21.00;99.90;;;;;;5094373;28;20369;-80
2022/06/20 12:28:24;;;;;;;;;;;21.00;99.90;;;;;;5093635;28;19951;-82
2022/06/20 12:30:54;;;;;;;;;;;21.10;99.90;;;;;;5094253;28;20357;-78
2022/06/20 12:33:20;;;;;;;;;;;21.10;99.90;;;;;;5095192;28;20006;-79
2022/06/20 12:35:50;;;;;;;;;;;21.10;99.90;;;;;;5094723;28;20373;-79
2022/06/20 12:38:25;;;;;;;;;;;21.10;99.90;;;;;;5095031;28;20008;-78
2022/06/20 12:40:56;;;;;;;;;;;21.20;99.90;;;;;;5094857;28;19916;-79
2022/06/20 12:43:28;;;;;;;;;;;21.20;99.90;;;;;;5094921;28;19916;-79
2022/06/20 12:45:56;;;;;;;;;;;21.40;99.90;;;;;;5094443;28;19908;-79
2022/06/20 12:48:36;;;;;;;;;;;21.40;99.90;;;;;;5094659;28;19930;-80
2022/06/20 12:51:11;;;;;;;;;;;21.40;99.90;;;;;;5093891;28;19916;-79
2022/06/20 12:53:36;;;;;;;;;;;21.40;99.90;;;;;;5094321;28;20277;-80
2022/06/20 12:56:24;;;;;;;;;;;21.40;99.90;;;;;;5093546;28;20012;-80
2022/06/20 12:58:49;;;;;;;;;;;21.30;99.90;;;;;;5094076;28;19912;-77
2022/06/20 13:01:19;;;;;;;;;;;21.20;99.90;;;;;;5094748;28;19912;-81
2022/06/20 13:03:54;;;;;;;;;;;21.20;99.90;;;;;;5094218;28;19981;-80
2022/06/20 13:06:39;;;;;;;;;;;21.20;99.90;;;;;;5094459;28;19998;-80
2022/06/20 13:09:10;;;;;;;;;;;21.30;99.90;;;;;;5093815;28;19908;-80
2022/06/20 13:11:35;;;;;;;;;;;21.40;99.90;;;;;;5094814;28;19908;-79
2022/06/20 13:14:01;;;;;;;;;;;21.50;99.90;;;;;;5092546;28;20372;-78
2022/06/20 13:16:31;;;;;;;;;;;21.60;99.90;;;;;;5093943;28;19908;-78
2022/06/20 13:18:59;;;;;;;;;;;21.70;99.90;;;;;;5093800;28;20268;-79
2022/06/20 13:21:30;;;;;;;;;;;21.70;99.90;;;;;;5094209;28;19912;-78
2022/06/20 13:23:59;;;;;;;;;;;21.70;99.90;;;;;;5093795;28;19969;-78
2022/06/20 13:26:32;;;;;;;;;;;21.70;99.90;;;;;;5093776;28;19908;-78
2022/06/20 13:29:12;;;;;;;;;;;21.80;99.90;;;;;;5093769;28;19912;-78
2022/06/20 13:31:41;;;;;;;;;;;21.80;99.90;;;;;;5094171;28;19919;-79
2022/06/20 13:34:13;;;;;;;;;;;21.80;99.90;;;;;;5093433;28;19955;-79
2022/06/20 13:36:52;;;;;;;;;;;21.70;99.90;;;;;;5126334;27;19931;-81
2022/06/20 13:39:57;;;;;;;;;;;21.80;99.90;;;;;;5093778;28;19916;-80
2022/06/20 13:42:35;;;;;;;;;;;21.90;99.90;;;;;;5071087;28;20381;-80
2022/06/20 13:45:23;;;;;;;;;;;21.90;99.90;;;;;;5070492;28;19908;-81
2022/06/20 13:47:59;;;;;;;;;;;21.90;99.90;;;;;;5086659;28;20002;-81
2022/06/20 13:50:45;;;;;;;;;;;21.90;99.90;;;;;;5092963;28;20372;-81
2022/06/20 13:53:10;;;;;;;;;;;21.90;99.90;;;;;;5092003;28;20024;-80
2022/06/20 13:55:36;;;;;;;;;;;21.90;99.90;;;;;;5093492;28;20003;-80
2022/06/20 13:58:02;;;;;;;;;;;21.90;99.90;;;;;;5092410;28;20265;-80
2022/06/20 14:00:29;;;;;;;;;;;22.00;99.90;;;;;;5092677;28;19916;-80
2022/06/20 14:03:13;;;;;;;;;;;22.00;99.90;;;;;;5092370;28;20293;-80
2022/06/20 14:05:39;;;;;;;;;;;22.00;99.90;;;;;;5092901;28;19957;-80
2022/06/20 14:08:26;;;;;;;;;;;22.00;99.90;;;;;;5092537;28;19908;-81
2022/06/20 14:10:59;;;;;;;;;;;22.00;99.90;;;;;;5092852;28;19908;-79
2022/06/20 14:13:28;;;;;;;;;;;22.10;99.90;;;;;;5093535;28;19915;-80
2022/06/20 14:16:14;;;;;;;;;;;22.10;99.90;;;;;;5093723;28;19915;-77
2022/06/20 14:18:45;;;;;;;;;;;22.20;99.90;;;;;;5094151;28;20365;-81
2022/06/20 14:21:10;;;;;;;;;;;22.30;99.90;;;;;;5092528;28;19977;-80
2022/06/20 14:23:37;;;;;;;;;;;22.30;99.90;;;;;;5092547;28;19908;-81
2022/06/20 14:26:08;;;;;;;;;;;22.30;99.90;;;;;;5092412;28;19915;-81
2022/06/20 14:28:38;;;;;;;;;;;22.20;99.90;;;;;;5092822;28;19908;-81
2022/06/20 14:31:10;;;;;;;;;;;22.20;99.90;;;;;;5090926;28;19951;-80
2022/06/20 14:33:41;;;;;;;;;;;22.30;99.90;;;;;;5092714;28;20388;-81
2022/06/20 14:36:27;;;;;;;;;;;22.30;99.90;;;;;;5092406;28;20418;-81
2022/06/20 14:39:11;;;;;;;;;;;22.20;99.90;;;;;;5092529;28;20349;-81
2022/06/20 14:41:39;;;;;;;;;;;22.30;99.90;;;;;;5092821;28;19919;-81
2022/06/20 14:44:15;;;;;;;;;;;22.30;99.90;;;;;;5092174;28;20275;-81
2022/06/20 14:46:49;;;;;;;;;;;22.30;99.90;;;;;;5092859;28;20006;-81
2022/06/20 14:49:21;;;;;;;;;;;22.30;99.90;;;;;;5091926;28;19908;-82
2022/06/20 14:51:53;;;;;;;;;;;22.30;99.90;;;;;;5092984;28;20365;-81
2022/06/20 14:54:26;;;;;;;;;;;22.30;99.90;;;;;;5092184;28;19908;-80
2022/06/20 14:57:00;;;;;;;;;;;22.20;99.90;;;;;;5092314;28;19912;-80